createdAt,value
2022-12-05T00:01:24.287Z,1.50
2022-12-05T00:03:53.600Z,1.70
2022-12-05T00:06:21.513Z,2.22
2022-12-05T00:08:49.150Z,2.00
2022-12-05T00:11:18.956Z,1.77
2022-12-05T00:13:46.088Z,2.28
2022-12-05T00:16:15.704Z,1.65
2022-12-05T00:18:43.337Z,1.40
2022-12-05T00:21:19.327Z,1.90
2022-12-05T00:23:46.383Z,2.00
2022-12-05T00:26:13.575Z,1.98
2022-12-05T00:28:40.677Z,1.67
2022-12-05T00:31:12.963Z,1.58
2022-12-05T00:33:40.505Z,1.83
2022-12-05T00:36:13.418Z,2.07
2022-12-05T00:38:41.540Z,1.92
2022-12-05T00:41:10.649Z,2.15
2022-12-05T00:43:37.884Z,1.52
2022-12-05T00:46:08.341Z,1.83
2022-12-05T00:48:35.867Z,1.83
2022-12-05T00:51:19.106Z,1.63
2022-12-05T00:53:46.920Z,1.33
2022-12-05T00:56:16.511Z,1.50
2022-12-05T00:58:43.547Z,1.50
2022-12-05T01:01:13.944Z,1.80
2022-12-05T01:03:41.843Z,1.70
2022-12-05T01:06:10.662Z,1.83
2022-12-05T01:08:37.702Z,1.50
2022-12-05T01:11:06.440Z,1.77
2022-12-05T01:13:33.912Z,1.40
2022-12-05T01:16:01.559Z,1.67
2022-12-05T01:18:29.460Z,1.67
2022-12-05T01:20:56.485Z,2.35
2022-12-05T01:23:23.295Z,1.70
2022-12-05T01:25:51.908Z,1.40
2022-12-05T01:28:19.227Z,1.80
2022-12-05T01:30:48.381Z,2.25
2022-12-05T01:33:16.321Z,1.52
2022-12-05T01:35:43.942Z,1.77
2022-12-05T01:38:12.850Z,1.50
2022-12-05T01:40:40.754Z,2.72
2022-12-05T01:43:17.081Z,1.60
2022-12-05T01:45:46.549Z,1.65
2022-12-05T01:48:24.686Z,2.67
2022-12-05T01:50:52.138Z,1.70
2022-12-05T01:53:20.208Z,3.00
2022-12-05T01:55:50.011Z,1.70
2022-12-05T01:58:17.759Z,1.40
2022-12-05T02:00:45.182Z,1.90
2022-12-05T02:03:17.796Z,1.50
2022-12-05T02:05:48.552Z,1.63
2022-12-05T02:08:15.325Z,2.28
2022-12-05T02:10:54.297Z,1.70
2022-12-05T02:13:39.554Z,3.25
2022-12-05T02:16:10.318Z,2.03
2022-12-05T02:19:05.152Z,1.88
2022-12-05T02:22:04.826Z,2.10
2022-12-05T02:24:50.385Z,2.63
2022-12-05T02:27:38.048Z,2.00
2022-12-05T02:30:09.704Z,1.73
2022-12-05T02:32:57.826Z,3.75
2022-12-05T02:36:19.883Z,2.83
2022-12-05T02:39:01.470Z,1.90
2022-12-05T02:41:32.652Z,1.90
2022-12-05T02:44:23.330Z,2.43
2022-12-05T02:46:52.832Z,1.90
2022-12-05T02:49:25.167Z,2.42
2022-12-05T02:51:58.713Z,1.70
2022-12-05T02:54:36.825Z,2.35
2022-12-05T02:57:05.170Z,2.07
2022-12-05T02:59:31.958Z,2.58
2022-12-05T03:01:58.647Z,2.55
2022-12-05T03:04:26.803Z,2.20
2022-12-05T03:07:00.662Z,2.60
2022-12-05T03:09:38.140Z,2.10
2022-12-05T03:12:17.385Z,3.58
2022-12-05T03:14:58.789Z,2.20
2022-12-05T03:17:30.825Z,1.88
2022-12-05T03:20:00.518Z,2.13
2022-12-05T03:22:37.828Z,2.63
2022-12-05T03:25:05.077Z,2.22
2022-12-05T03:27:45.917Z,2.10
2022-12-05T03:30:16.323Z,2.65
2022-12-05T03:32:53.826Z,1.75
2022-12-05T03:35:35.830Z,3.80
2022-12-05T03:38:16.554Z,2.03
2022-12-05T03:40:56.594Z,1.88
2022-12-05T03:43:35.353Z,2.38
2022-12-05T03:46:20.066Z,2.17
2022-12-05T03:49:03.670Z,2.07
2022-12-05T03:51:42.539Z,2.92
2022-12-05T03:54:20.140Z,2.30
2022-12-05T03:56:52.798Z,3.00
2022-12-05T03:59:34.373Z,2.00
2022-12-05T04:02:08.400Z,2.07
2022-12-05T04:04:39.889Z,1.65
2022-12-05T04:07:09.721Z,1.85
2022-12-05T04:09:48.305Z,2.25
2022-12-05T04:12:22.289Z,1.55
2022-12-05T04:14:52.584Z,1.83
2022-12-05T04:17:53.876Z,2.13
2022-12-05T04:20:48.339Z,1.63
2022-12-05T04:23:15.966Z,1.30
2022-12-05T04:26:00.608Z,2.15
2022-12-05T04:28:36.773Z,1.67
2022-12-05T04:31:35.685Z,1.77
2022-12-05T04:34:06.665Z,2.03
2022-12-05T04:36:42.539Z,1.58
2022-12-05T04:39:26.319Z,2.30
2022-12-05T04:42:01.331Z,1.80
2022-12-05T04:44:33.911Z,2.75
2022-12-05T04:47:04.077Z,1.20
2022-12-05T04:49:33.208Z,1.42
2022-12-05T04:52:04.125Z,1.70
2022-12-05T04:55:05.011Z,2.03
2022-12-05T04:57:37.344Z,1.95
2022-12-05T05:00:05.004Z,1.70
2022-12-05T05:02:45.375Z,2.17
2022-12-05T05:05:16.453Z,1.80
2022-12-05T05:07:45.772Z,2.07
2022-12-05T05:10:16.343Z,1.90
2022-12-05T05:12:43.210Z,2.13
2022-12-05T05:15:10.961Z,1.83
2022-12-05T05:17:37.807Z,1.55
2022-12-05T05:20:23.760Z,3.77
2022-12-05T05:22:56.159Z,1.90
2022-12-05T05:25:23.744Z,2.13
2022-12-05T05:27:53.005Z,2.63
2022-12-05T05:30:21.526Z,1.40
2022-12-05T05:32:48.823Z,2.00
2022-12-05T05:35:16.153Z,2.15
2022-12-05T05:37:43.099Z,2.28
2022-12-05T05:40:12.328Z,1.88
2022-12-05T05:42:46.671Z,1.45
2022-12-05T05:45:15.631Z,2.03
2022-12-05T05:47:43.303Z,1.63
2022-12-05T05:50:16.238Z,2.30
2022-12-05T05:52:46.691Z,2.28
2022-12-05T05:55:13.382Z,2.85
2022-12-05T05:57:40.054Z,1.70
2022-12-05T06:00:08.177Z,2.25
2022-12-05T06:02:36.992Z,1.35
2022-12-05T06:05:04.865Z,2.70
2022-12-05T06:07:32.909Z,3.15
2022-12-05T06:10:00.005Z,3.20
2022-12-05T06:12:27.130Z,3.25
2022-12-05T06:14:54.334Z,2.42
2022-12-05T06:17:21.206Z,2.35
2022-12-05T06:19:47.920Z,1.58
2022-12-05T06:22:15.674Z,2.23
2022-12-05T06:24:42.494Z,4.53
2022-12-05T06:27:09.321Z,2.10
2022-12-05T06:29:36.020Z,2.47
2022-12-05T06:32:03.372Z,3.50
2022-12-05T06:34:32.460Z,2.10
2022-12-05T06:36:59.978Z,3.78
2022-12-05T06:39:26.820Z,2.80
2022-12-05T06:41:54.700Z,3.38
2022-12-05T06:44:22.034Z,2.58
2022-12-05T06:46:49.129Z,2.43
2022-12-05T06:49:15.816Z,2.70
2022-12-05T06:51:42.569Z,2.45
2022-12-05T06:54:09.289Z,5.82
2022-12-05T06:56:35.929Z,2.95
2022-12-05T06:59:02.990Z,1.70
2022-12-05T07:01:39.105Z,2.42
2022-12-05T07:04:16.849Z,3.08
2022-12-05T07:06:50.329Z,2.80
2022-12-05T07:09:19.711Z,1.70
2022-12-05T07:11:48.875Z,3.30
2022-12-05T07:14:39.065Z,2.33
2022-12-05T07:17:02.355Z,4.80
2022-12-05T07:19:29.129Z,5.85
2022-12-05T07:21:55.829Z,1.95
2022-12-05T07:24:22.498Z,5.53
2022-12-05T07:26:49.200Z,2.42
2022-12-05T07:29:15.891Z,2.97
2022-12-05T07:31:42.848Z,2.50
2022-12-05T07:34:09.897Z,2.50
2022-12-05T07:36:36.720Z,13.17
2022-12-05T07:39:03.936Z,9.07
2022-12-05T07:41:33.070Z,2.65
2022-12-05T07:44:05.694Z,2.67
2022-12-05T07:46:32.449Z,1.83
2022-12-05T07:48:59.178Z,3.17
2022-12-05T07:51:26.147Z,1.90
2022-12-05T07:53:52.849Z,3.95
2022-12-05T07:56:19.948Z,2.15
2022-12-05T07:58:49.255Z,3.55
2022-12-05T08:01:20.077Z,2.37
2022-12-05T08:03:47.243Z,2.70
2022-12-05T08:06:19.980Z,2.55
2022-12-05T08:08:51.113Z,5.70
2022-12-05T08:11:24.072Z,2.33
2022-12-05T08:13:51.463Z,3.13
2022-12-05T08:16:23.561Z,2.97
2022-12-05T08:18:58.005Z,6.68
2022-12-05T08:21:25.534Z,3.92
2022-12-05T08:23:52.712Z,4.10
2022-12-05T08:26:24.547Z,2.57
2022-12-05T08:29:02.609Z,3.55
2022-12-05T08:31:31.881Z,2.92
2022-12-05T08:33:59.826Z,3.67
2022-12-05T08:36:28.937Z,4.15
2022-12-05T08:39:02.000Z,6.03
2022-12-05T08:41:30.159Z,2.15
2022-12-05T08:43:59.545Z,3.70
2022-12-05T08:46:26.319Z,8.63
2022-12-05T08:48:53.102Z,7.22
2022-12-05T08:51:19.842Z,5.43
2022-12-05T08:53:46.831Z,5.35
2022-12-05T08:56:14.203Z,3.08
2022-12-05T08:58:41.754Z,3.22
2022-12-05T09:01:12.491Z,4.55
2022-12-05T09:03:43.297Z,2.17
2022-12-05T09:06:21.571Z,8.07
2022-12-05T09:08:49.352Z,3.20
2022-12-05T09:11:19.932Z,3.78
2022-12-05T09:13:47.459Z,7.82
2022-12-05T09:16:19.912Z,3.97
2022-12-05T09:18:48.477Z,3.60
2022-12-05T09:21:18.258Z,2.53
2022-12-05T09:23:45.243Z,2.88
2022-12-05T09:26:15.055Z,3.22
2022-12-05T09:28:42.571Z,2.00
2022-12-05T09:31:12.696Z,2.47
2022-12-05T09:33:39.597Z,5.70
2022-12-05T09:36:09.200Z,3.53
2022-12-05T09:38:35.981Z,6.88
2022-12-05T09:41:05.477Z,2.77
2022-12-05T09:43:59.148Z,3.88
2022-12-05T09:46:47.384Z,3.30
2022-12-05T09:49:14.364Z,2.38
2022-12-05T09:51:44.902Z,2.60
2022-12-05T09:54:14.298Z,2.13
2022-12-05T09:56:44.270Z,2.13
2022-12-05T09:59:16.943Z,5.63
2022-12-05T10:01:55.969Z,3.53
2022-12-05T10:04:32.106Z,5.10
2022-12-05T10:06:59.049Z,2.17
2022-12-05T10:09:47.100Z,8.95
2022-12-05T10:12:39.162Z,9.07
2022-12-05T10:15:19.268Z,8.80
2022-12-05T10:17:53.395Z,2.25
2022-12-05T10:20:33.613Z,4.67
2022-12-05T10:23:48.945Z,1.90
2022-12-05T10:26:11.505Z,2.35
2022-12-05T10:28:48.089Z,2.25
2022-12-05T10:31:19.342Z,1.83
2022-12-05T10:33:51.388Z,1.97
2022-12-05T10:36:18.362Z,2.17
2022-12-05T10:38:45.870Z,2.40
2022-12-05T10:41:14.628Z,5.15
2022-12-05T10:43:44.736Z,2.13
2022-12-05T10:46:17.076Z,2.13
2022-12-05T10:48:44.757Z,1.60
2022-12-05T10:51:22.850Z,4.00
2022-12-05T10:53:51.204Z,1.77
2022-12-05T10:56:37.628Z,2.97
2022-12-05T10:59:06.189Z,2.20
2022-12-05T11:01:34.657Z,2.85
2022-12-05T11:04:13.701Z,2.15
2022-12-05T11:06:51.121Z,1.63
2022-12-05T11:09:22.519Z,2.28
2022-12-05T11:12:17.290Z,4.63
2022-12-05T11:14:54.476Z,2.13
2022-12-05T11:17:27.393Z,2.50
2022-12-05T11:19:54.285Z,4.75
2022-12-05T11:22:30.230Z,2.45
2022-12-05T11:24:57.289Z,2.03
2022-12-05T11:27:32.325Z,2.50
2022-12-05T11:30:19.133Z,3.28
2022-12-05T11:32:45.968Z,3.25
2022-12-05T11:35:12.721Z,2.28
2022-12-05T11:37:42.162Z,2.20
2022-12-05T11:40:29.436Z,4.40
2022-12-05T11:43:23.471Z,5.40
2022-12-05T11:46:16.387Z,4.25
2022-12-05T11:49:08.136Z,2.60
2022-12-05T11:51:59.584Z,1.73
2022-12-05T11:57:56.103Z,2.78
2022-12-05T12:00:35.237Z,3.50
2022-12-05T12:03:34.467Z,2.95
2022-12-05T12:06:15.481Z,2.50
2022-12-05T12:09:20.184Z,1.98
2022-12-05T12:12:05.288Z,3.50
2022-12-05T12:14:41.468Z,6.38
2022-12-05T12:17:20.041Z,1.90
2022-12-05T12:20:12.569Z,1.50
2022-12-05T12:22:45.311Z,1.67
2022-12-05T12:25:30.028Z,2.20
2022-12-05T12:28:19.194Z,9.88
2022-12-05T12:30:52.044Z,3.22
2022-12-05T12:33:42.889Z,3.73
2022-12-05T12:36:30.080Z,2.05
2022-12-05T12:39:10.059Z,1.85
2022-12-05T12:42:08.223Z,3.22
2022-12-05T12:44:40.833Z,4.82
2022-12-05T12:47:32.693Z,2.30
2022-12-05T12:50:47.146Z,2.55
2022-12-05T12:53:19.776Z,3.13
2022-12-05T12:56:13.945Z,31.63
2022-12-05T12:58:54.321Z,21.55
2022-12-05T13:01:30.074Z,8.70
2022-12-05T13:04:12.412Z,6.90
2022-12-05T13:09:50.212Z,3.25
2022-12-05T13:12:24.585Z,4.20
2022-12-05T13:15:01.161Z,4.10
2022-12-05T13:17:32.014Z,2.63
2022-12-05T13:19:59.653Z,2.55
2022-12-05T13:22:29.066Z,8.57
2022-12-05T13:24:56.794Z,4.13
2022-12-05T13:27:27.802Z,6.53
2022-12-05T13:30:01.697Z,4.22
2022-12-05T13:32:43.413Z,6.65
2022-12-05T13:35:41.959Z,3.40
2022-12-05T13:38:40.192Z,4.75
2022-12-05T13:41:32.668Z,9.63
2022-12-05T13:44:06.730Z,8.75
2022-12-05T13:46:38.756Z,4.85
2022-12-05T13:49:26.016Z,7.32
2022-12-05T13:51:53.597Z,13.50
2022-12-05T13:54:24.439Z,8.73
2022-12-05T13:57:01.937Z,11.07
2022-12-05T14:00:01.945Z,8.98
2022-12-05T14:02:41.796Z,7.00
2022-12-05T14:05:14.562Z,10.45
2022-12-05T14:07:46.912Z,3.13
2022-12-05T14:10:17.239Z,3.63
2022-12-05T14:12:49.329Z,2.60
2022-12-05T14:15:37.807Z,6.57
2022-12-05T14:18:22.933Z,10.48
2022-12-05T14:21:07.725Z,5.33
2022-12-05T14:23:55.832Z,5.13
2022-12-05T14:26:37.487Z,13.27
2022-12-05T14:30:01.417Z,4.60
2022-12-05T14:32:38.677Z,4.13
2022-12-05T14:35:29.028Z,3.50
2022-12-05T14:38:06.905Z,5.28
2022-12-05T14:40:37.713Z,5.55
2022-12-05T14:43:22.323Z,4.85
2022-12-05T14:45:52.222Z,2.90
2022-12-05T14:48:33.081Z,2.77
2022-12-05T14:51:00.925Z,5.57
2022-12-05T14:53:30.297Z,4.63
2022-12-05T14:56:00.143Z,3.30
2022-12-05T14:58:38.011Z,5.78
2022-12-05T15:01:15.604Z,3.00
2022-12-05T15:04:06.746Z,5.75
2022-12-05T15:06:37.145Z,3.15
2022-12-05T15:09:36.098Z,4.47
2022-12-05T15:11:57.197Z,4.47
2022-12-05T15:14:31.276Z,3.13
2022-12-05T15:17:01.174Z,7.03
2022-12-05T15:19:33.312Z,3.63
2022-12-05T15:22:02.629Z,3.25
2022-12-05T15:24:39.670Z,3.38
2022-12-05T15:27:14.250Z,3.73
2022-12-05T15:29:41.178Z,2.72
2022-12-05T15:32:10.691Z,6.53
2022-12-05T15:34:44.794Z,2.42
2022-12-05T15:37:32.901Z,5.72
2022-12-05T15:40:00.762Z,3.00
2022-12-05T15:46:24.702Z,3.80
2022-12-05T15:48:53.318Z,3.90
2022-12-05T15:51:25.822Z,3.30
2022-12-05T15:54:17.813Z,3.70
2022-12-05T15:57:03.828Z,4.38
2022-12-05T15:59:34.844Z,4.47
2022-12-05T16:02:25.053Z,5.88
2022-12-05T16:04:57.419Z,6.80
2022-12-05T16:07:28.981Z,5.27
2022-12-05T16:09:58.093Z,5.10
2022-12-05T16:12:32.929Z,9.90
2022-12-05T16:15:05.149Z,20.55
2022-12-05T16:17:40.779Z,7.50
2022-12-05T16:20:22.791Z,11.60
2022-12-05T16:22:51.709Z,9.30
2022-12-05T16:25:24.579Z,10.43
2022-12-05T16:27:59.825Z,7.80
2022-12-05T16:30:27.972Z,11.15
2022-12-05T16:33:05.584Z,9.73
2022-12-05T16:35:40.483Z,10.45
2022-12-05T16:38:14.866Z,13.27
2022-12-05T16:40:50.211Z,10.63
2022-12-05T16:43:40.503Z,11.77
2022-12-05T16:46:13.402Z,11.07
2022-12-05T16:48:45.181Z,10.80
2022-12-05T16:51:18.205Z,11.63
2022-12-05T16:53:53.547Z,12.02
2022-12-05T16:56:29.746Z,12.75
2022-12-05T16:58:57.312Z,9.90
2022-12-05T17:01:27.069Z,9.25
2022-12-05T17:03:55.815Z,18.10
2022-12-05T17:06:24.670Z,17.15
2022-12-05T17:08:52.310Z,19.92
2022-12-05T17:11:27.824Z,13.83
2022-12-05T17:13:56.739Z,8.88
2022-12-05T17:16:24.675Z,9.88
2022-12-05T17:18:51.519Z,11.55
2022-12-05T17:21:31.615Z,8.32
2022-12-05T17:23:58.958Z,9.60
2022-12-05T17:26:26.463Z,13.18
2022-12-05T17:28:53.304Z,14.52
2022-12-05T17:31:25.260Z,19.23
2022-12-05T17:33:53.934Z,10.23
2022-12-05T17:36:21.176Z,15.53
2022-12-05T17:38:48.070Z,21.60
2022-12-05T17:41:17.973Z,17.25
2022-12-05T17:43:45.964Z,12.00
2022-12-05T17:46:22.470Z,8.45
2022-12-05T17:48:50.980Z,9.00
2022-12-05T17:51:19.310Z,6.70
2022-12-05T17:53:47.412Z,8.07
2022-12-05T17:56:14.709Z,10.82
2022-12-05T17:58:42.237Z,9.57
2022-12-05T18:01:18.575Z,12.87
2022-12-05T18:03:46.778Z,8.77
2022-12-05T18:06:14.107Z,8.77
2022-12-05T18:08:44.087Z,4.97
2022-12-05T18:11:13.751Z,10.38
2022-12-05T18:13:40.477Z,8.07
2022-12-05T18:16:07.740Z,7.28
2022-12-05T18:18:35.030Z,10.45
2022-12-05T18:21:11.451Z,7.63
2022-12-05T18:23:39.661Z,5.63
2022-12-05T18:26:08.545Z,8.37
2022-12-05T18:28:37.324Z,8.23
2022-12-05T18:31:13.554Z,9.65
2022-12-05T18:33:40.766Z,13.15
2022-12-05T18:36:11.511Z,39.83
2022-12-05T18:38:39.254Z,17.27
2022-12-05T18:41:06.632Z,8.68
2022-12-05T18:43:33.965Z,5.30
2022-12-05T18:46:03.004Z,6.30
2022-12-05T18:48:39.552Z,16.23
2022-12-05T18:51:11.497Z,12.37
2022-12-05T18:53:38.774Z,13.88
2022-12-05T18:56:27.668Z,21.30
2022-12-05T18:59:00.306Z,20.50
2022-12-05T19:01:29.254Z,26.77
2022-12-05T19:03:57.349Z,30.53
2022-12-05T19:06:26.945Z,26.20
2022-12-05T19:08:55.517Z,19.70
2022-12-05T19:11:23.723Z,20.13
2022-12-05T19:13:54.806Z,24.75
2022-12-05T19:16:21.634Z,20.23
2022-12-05T19:18:54.466Z,17.52
2022-12-05T19:21:21.389Z,18.50
2022-12-05T19:23:48.005Z,18.27
2022-12-05T19:26:14.999Z,18.50
2022-12-05T19:28:41.731Z,17.73
2022-12-05T19:31:20.609Z,16.27
2022-12-05T19:33:50.412Z,14.25
2022-12-05T19:36:25.443Z,16.25
2022-12-05T19:38:53.782Z,18.90
2022-12-05T19:41:23.162Z,18.97
2022-12-05T19:43:50.484Z,16.38
2022-12-05T19:46:21.265Z,17.58
2022-12-05T19:48:48.568Z,18.83
2022-12-05T19:51:15.481Z,18.25
2022-12-05T19:53:44.142Z,17.40
2022-12-05T19:56:22.380Z,14.43
2022-12-05T19:58:50.561Z,12.05
2022-12-05T20:01:26.909Z,11.73
2022-12-05T20:03:59.661Z,11.30
2022-12-05T20:06:31.027Z,16.57
2022-12-05T20:08:59.239Z,9.20
2022-12-05T20:11:28.113Z,7.65
2022-12-05T20:13:56.807Z,6.25
2022-12-05T20:16:26.744Z,5.75
2022-12-05T20:18:55.418Z,4.10
2022-12-05T20:21:23.074Z,5.38
2022-12-05T20:23:51.490Z,3.00
2022-12-05T20:26:20.634Z,6.70
2022-12-05T20:28:48.864Z,6.03
2022-12-05T20:31:19.083Z,4.20
2022-12-05T20:33:46.543Z,6.07
2022-12-05T20:36:19.142Z,7.30
2022-12-05T20:38:46.531Z,4.97
2022-12-05T20:41:18.987Z,8.18
2022-12-05T20:43:47.751Z,12.57
2022-12-05T20:46:19.810Z,4.60
2022-12-05T20:48:47.898Z,4.22
2022-12-05T20:51:17.373Z,4.70
2022-12-05T20:53:45.367Z,4.50
2022-12-05T20:56:13.429Z,6.27
2022-12-05T20:58:40.958Z,9.75
2022-12-05T21:01:10.472Z,9.93
2022-12-05T21:03:41.779Z,7.95
2022-12-05T21:06:11.296Z,9.48
2022-12-05T21:08:38.285Z,6.53
2022-12-05T21:11:06.366Z,7.32
2022-12-05T21:13:33.626Z,11.50
2022-12-05T21:16:05.142Z,7.72
2022-12-05T21:18:32.781Z,12.63
2022-12-05T21:21:02.382Z,9.13
2022-12-05T21:23:29.539Z,8.95
2022-12-05T21:26:06.468Z,7.63
2022-12-05T21:28:34.625Z,8.65
2022-12-05T21:31:32.156Z,4.75
2022-12-05T21:34:01.204Z,9.60
2022-12-05T21:36:30.890Z,9.52
2022-12-05T21:38:57.691Z,7.60
2022-12-05T21:41:25.884Z,6.05
2022-12-05T21:43:55.264Z,6.25
2022-12-05T21:46:24.030Z,7.27
2022-12-05T21:48:51.145Z,5.00
2022-12-05T21:51:18.090Z,5.05
2022-12-05T21:53:44.828Z,6.55
2022-12-05T21:56:17.268Z,6.20
2022-12-05T21:58:45.497Z,9.20
2022-12-05T22:01:19.808Z,8.10
2022-12-05T22:03:46.998Z,10.88
2022-12-05T22:06:15.339Z,8.02
2022-12-05T22:08:42.857Z,9.65
2022-12-05T22:11:17.791Z,8.10
2022-12-05T22:13:45.014Z,6.53
2022-12-05T22:16:12.859Z,5.68
2022-12-05T22:18:39.827Z,10.43
2022-12-05T22:21:10.993Z,6.47
2022-12-05T22:23:37.787Z,5.90
2022-12-05T22:26:06.826Z,5.28
2022-12-05T22:28:34.642Z,8.98
2022-12-05T22:31:03.603Z,9.07
2022-12-05T22:33:31.577Z,15.93
2022-12-05T22:36:00.404Z,17.57
2022-12-05T22:38:29.604Z,19.58
2022-12-05T22:40:59.053Z,6.00
2022-12-05T22:43:27.727Z,7.28
2022-12-05T22:45:54.345Z,8.38
2022-12-05T22:48:21.786Z,10.77
2022-12-05T22:50:54.727Z,13.32
2022-12-05T22:53:23.672Z,12.07
2022-12-05T22:55:50.969Z,9.35
2022-12-05T22:58:18.390Z,10.57
2022-12-05T23:00:46.337Z,14.17
2022-12-05T23:03:13.257Z,11.43
2022-12-05T23:05:41.768Z,13.57
2022-12-05T23:08:09.519Z,13.82
2022-12-05T23:10:39.320Z,8.80
2022-12-05T23:13:07.700Z,4.80
2022-12-05T23:15:37.306Z,7.78
2022-12-05T23:18:04.951Z,6.20
2022-12-05T23:20:32.524Z,7.25
2022-12-05T23:22:59.351Z,8.02
2022-12-05T23:25:26.244Z,7.60
2022-12-05T23:27:53.527Z,6.57
2022-12-05T23:30:20.446Z,7.43
2022-12-05T23:32:47.436Z,5.68
2022-12-05T23:35:14.325Z,6.40
2022-12-05T23:37:41.147Z,6.90
2022-12-05T23:40:08.581Z,5.88
2022-12-05T23:42:35.408Z,8.32
2022-12-05T23:45:02.393Z,8.02
2022-12-05T23:47:32.110Z,6.05
2022-12-05T23:49:59.348Z,6.50
2022-12-05T23:52:26.416Z,5.38
2022-12-05T23:54:53.525Z,5.88
2022-12-05T23:57:20.391Z,8.57
2022-12-05T23:59:47.189Z,8.07
